createdAt,value
2023-02-18T00:01:20.990Z,100.00
2023-02-18T00:03:50.702Z,100.00
2023-02-18T00:06:23.512Z,100.00
2023-02-18T00:08:54.969Z,100.00
2023-02-18T00:11:24.216Z,100.00
2023-02-18T00:13:54.205Z,100.00
2023-02-18T00:16:24.551Z,100.00
2023-02-18T00:18:57.104Z,100.00
2023-02-18T00:21:26.409Z,100.00
2023-02-18T00:23:57.031Z,100.00
2023-02-18T00:26:26.175Z,100.00
2023-02-18T00:28:55.393Z,100.00
2023-02-18T00:31:26.530Z,100.00
2023-02-18T00:33:56.043Z,100.00
2023-02-18T00:36:25.605Z,100.00
2023-02-18T00:38:58.191Z,100.00
2023-02-18T00:41:29.566Z,100.00
2023-02-18T00:43:59.977Z,100.00
2023-02-18T00:46:29.634Z,100.00
2023-02-18T00:48:58.883Z,100.00
2023-02-18T00:51:28.351Z,100.00
2023-02-18T00:53:58.710Z,100.00
2023-02-18T00:56:27.717Z,100.00
2023-02-18T00:58:56.797Z,100.00
2023-02-18T01:01:26.245Z,100.00
2023-02-18T01:03:55.276Z,100.00
2023-02-18T01:06:24.300Z,100.00
2023-02-18T01:08:53.241Z,100.00
2023-02-18T01:11:23.759Z,100.00
2023-02-18T01:13:53.250Z,100.00
2023-02-18T01:16:22.295Z,100.00
2023-02-18T01:18:51.281Z,100.00
2023-02-18T01:21:20.374Z,100.00
2023-02-18T01:23:49.542Z,100.00
2023-02-18T01:26:18.692Z,100.00
2023-02-18T01:28:49.202Z,100.00
2023-02-18T01:31:18.796Z,100.00
2023-02-18T01:33:48.027Z,100.00
2023-02-18T01:36:18.253Z,100.00
2023-02-18T01:38:47.279Z,100.00
2023-02-18T01:41:16.334Z,100.00
2023-02-18T01:43:45.449Z,100.00
2023-02-18T01:46:24.314Z,100.00
2023-02-18T01:48:56.850Z,100.00
2023-02-18T01:51:28.700Z,100.00
2023-02-18T01:54:02.038Z,100.00
2023-02-18T01:56:34.765Z,100.00
2023-02-18T01:59:09.650Z,100.00
2023-02-18T02:01:40.706Z,100.00
2023-02-18T02:04:10.474Z,100.00
2023-02-18T02:06:39.574Z,100.00
2023-02-18T02:09:11.839Z,100.00
2023-02-18T02:12:19.290Z,100.00
2023-02-18T02:15:20.073Z,100.00
2023-02-18T02:18:06.308Z,100.00
2023-02-18T02:21:07.323Z,100.00
2023-02-18T02:24:09.290Z,100.00
2023-02-18T02:27:17.091Z,100.00
2023-02-18T02:30:25.576Z,100.00
2023-02-18T02:33:27.563Z,100.00
2023-02-18T02:36:04.608Z,100.00
2023-02-18T02:38:40.407Z,100.00
2023-02-18T02:41:21.349Z,100.00
2023-02-18T02:44:03.121Z,100.00
2023-02-18T02:46:38.128Z,100.00
2023-02-18T02:49:20.872Z,100.00
2023-02-18T02:51:57.971Z,100.00
2023-02-18T02:54:29.275Z,100.00
2023-02-18T02:57:11.444Z,100.00
2023-02-18T02:59:53.551Z,100.00
2023-02-18T03:02:33.194Z,100.00
2023-02-18T03:05:19.324Z,100.00
2023-02-18T03:07:57.158Z,100.00
2023-02-18T03:10:38.051Z,100.00
2023-02-18T03:13:17.838Z,100.00
2023-02-18T03:15:55.930Z,100.00
2023-02-18T03:18:34.283Z,100.00
2023-02-18T03:21:10.928Z,100.00
2023-02-18T03:23:48.080Z,100.00
2023-02-18T03:26:19.336Z,100.00
2023-02-18T03:28:52.832Z,100.00
2023-02-18T03:31:26.837Z,100.00
2023-02-18T03:34:01.106Z,100.00
2023-02-18T03:36:31.396Z,100.00
2023-02-18T03:39:06.509Z,100.00
2023-02-18T03:41:35.886Z,100.00
2023-02-18T03:44:07.754Z,100.00
2023-02-18T03:46:38.121Z,100.00
2023-02-18T03:49:07.489Z,100.00
2023-02-18T03:51:37.818Z,100.00
2023-02-18T03:54:08.361Z,100.00
2023-02-18T03:56:38.318Z,100.00
2023-02-18T03:59:07.345Z,100.00
2023-02-18T04:01:36.758Z,100.00
2023-02-18T04:04:06.250Z,100.00
2023-02-18T04:06:35.380Z,100.00
2023-02-18T04:09:09.279Z,100.00
2023-02-18T04:11:41.599Z,100.00
2023-02-18T04:14:10.645Z,100.00
2023-02-18T04:16:39.696Z,100.00
2023-02-18T04:19:08.828Z,100.00
2023-02-18T04:21:37.881Z,100.00
2023-02-18T04:24:07.352Z,100.00
2023-02-18T04:26:36.470Z,100.00
2023-02-18T04:29:07.074Z,100.00
2023-02-18T04:31:36.242Z,100.00
2023-02-18T04:34:05.767Z,100.00
2023-02-18T04:36:35.052Z,100.00
2023-02-18T04:39:04.296Z,100.00
2023-02-18T04:41:33.329Z,100.00
2023-02-18T04:44:02.348Z,100.00
2023-02-18T04:46:33.339Z,100.00
2023-02-18T04:49:02.421Z,100.00
2023-02-18T04:51:31.461Z,100.00
2023-02-18T04:54:00.461Z,100.00
2023-02-18T04:56:29.523Z,100.00
2023-02-18T04:58:58.767Z,100.00
2023-02-18T05:01:27.809Z,100.00
2023-02-18T05:03:58.306Z,100.00
2023-02-18T05:06:27.598Z,100.00
2023-02-18T05:08:56.630Z,100.00
2023-02-18T05:11:25.688Z,100.00
2023-02-18T05:13:54.775Z,100.00
2023-02-18T05:16:23.760Z,100.00
2023-02-18T05:18:52.795Z,100.00
2023-02-18T05:21:23.424Z,100.00
2023-02-18T05:23:52.573Z,100.00
2023-02-18T05:26:21.833Z,100.00
2023-02-18T05:28:50.837Z,100.00
2023-02-18T05:31:19.893Z,100.00
2023-02-18T05:33:48.926Z,100.00
2023-02-18T05:36:18.241Z,100.00
2023-02-18T05:38:48.693Z,100.00
2023-02-18T05:41:17.761Z,100.00
2023-02-18T05:44:04.509Z,100.00
2023-02-18T05:46:33.625Z,100.00
2023-02-18T05:49:02.772Z,100.00
2023-02-18T05:51:32.062Z,100.00
2023-02-18T05:54:02.662Z,100.00
2023-02-18T05:56:31.850Z,100.00
2023-02-18T05:59:00.910Z,100.00
2023-02-18T06:01:29.942Z,100.00
2023-02-18T06:03:59.023Z,100.00
2023-02-18T06:06:28.254Z,100.00
2023-02-18T06:08:57.301Z,100.00
2023-02-18T06:11:27.737Z,100.00
2023-02-18T06:13:56.783Z,100.00
2023-02-18T06:16:26.058Z,100.00
2023-02-18T06:18:55.072Z,100.00
2023-02-18T06:21:24.103Z,100.00
2023-02-18T06:23:53.138Z,100.00
2023-02-18T06:26:22.231Z,100.00
2023-02-18T06:28:52.766Z,100.00
2023-02-18T06:31:21.949Z,100.00
2023-02-18T06:33:51.035Z,100.00
2023-02-18T06:36:20.131Z,100.00
2023-02-18T06:38:49.257Z,100.00
2023-02-18T06:41:18.439Z,100.00
2023-02-18T06:43:47.517Z,100.00
2023-02-18T06:46:18.091Z,100.00
2023-02-18T06:48:47.253Z,100.00
2023-02-18T06:51:17.438Z,100.00
2023-02-18T06:53:47.204Z,100.00
2023-02-18T06:56:16.190Z,100.00
2023-02-18T06:58:45.237Z,100.00
2023-02-18T07:01:14.420Z,100.00
2023-02-18T07:03:44.949Z,100.00
2023-02-18T07:06:13.949Z,100.00
2023-02-18T07:08:43.208Z,100.00
2023-02-18T07:11:12.327Z,100.00
2023-02-18T07:13:41.441Z,100.00
2023-02-18T07:16:10.876Z,100.00
2023-02-18T07:18:40.122Z,100.00
2023-02-18T07:21:10.857Z,99.13
2023-02-18T07:23:40.183Z,96.77
2023-02-18T07:26:11.253Z,95.57
2023-02-18T07:28:41.449Z,95.33
2023-02-18T07:31:11.135Z,95.17
2023-02-18T07:33:40.191Z,95.29
2023-02-18T07:36:11.633Z,95.57
2023-02-18T07:38:42.060Z,95.79
2023-02-18T07:41:23.357Z,95.89
2023-02-18T07:43:52.840Z,95.76
2023-02-18T07:46:22.459Z,95.21
2023-02-18T07:48:51.493Z,94.94
2023-02-18T07:51:24.910Z,94.50
2023-02-18T07:53:54.297Z,93.61
2023-02-18T07:56:23.717Z,93.41
2023-02-18T07:58:52.738Z,93.22
2023-02-18T08:01:21.795Z,94.01
2023-02-18T08:03:50.833Z,94.04
2023-02-18T08:06:27.367Z,94.06
2023-02-18T08:08:56.367Z,93.66
2023-02-18T08:11:25.534Z,93.52
2023-02-18T08:13:54.602Z,93.01
2023-02-18T08:16:24.355Z,92.99
2023-02-18T08:18:54.569Z,92.36
2023-02-18T08:21:26.874Z,92.47
2023-02-18T08:23:56.075Z,92.52
2023-02-18T08:26:25.094Z,92.25
2023-02-18T08:28:54.539Z,91.31
2023-02-18T08:31:27.018Z,91.68
2023-02-18T08:33:58.379Z,91.41
2023-02-18T08:36:29.396Z,90.72
2023-02-18T08:38:59.105Z,91.33
2023-02-18T08:41:28.141Z,91.51
2023-02-18T08:43:57.310Z,91.32
2023-02-18T08:46:35.020Z,91.50
2023-02-18T08:49:06.464Z,90.74
2023-02-18T08:51:37.134Z,90.27
2023-02-18T08:54:06.698Z,91.32
2023-02-18T08:56:35.913Z,90.54
2023-02-18T08:59:05.019Z,90.67
2023-02-18T09:01:34.304Z,87.79
2023-02-18T09:04:03.396Z,86.65
2023-02-18T09:06:33.547Z,85.84
2023-02-18T09:09:05.453Z,84.56
2023-02-18T09:11:35.232Z,83.92
2023-02-18T09:14:04.311Z,82.86
2023-02-18T09:16:33.313Z,82.62
2023-02-18T09:19:02.314Z,82.41
2023-02-18T09:21:31.743Z,81.30
2023-02-18T09:24:01.052Z,81.29
2023-02-18T09:26:31.706Z,81.47
2023-02-18T09:29:00.653Z,82.09
2023-02-18T09:31:30.858Z,82.29
2023-02-18T09:34:02.353Z,82.45
2023-02-18T09:36:31.869Z,81.89
2023-02-18T09:39:01.023Z,82.24
2023-02-18T09:41:39.518Z,81.65
2023-02-18T09:44:15.679Z,82.04
2023-02-18T09:46:52.955Z,82.34
2023-02-18T09:49:26.876Z,81.95
2023-02-18T09:51:57.492Z,81.98
2023-02-18T09:54:29.008Z,82.87
2023-02-18T09:57:01.134Z,82.95
2023-02-18T09:59:31.456Z,82.52
2023-02-18T10:02:05.654Z,82.40
2023-02-18T10:04:41.868Z,82.24
2023-02-18T10:07:21.124Z,81.83
2023-02-18T10:09:53.274Z,81.63
2023-02-18T10:12:26.172Z,81.57
2023-02-18T10:14:57.542Z,81.30
2023-02-18T10:17:29.396Z,81.53
2023-02-18T10:20:01.502Z,81.35
2023-02-18T10:22:33.213Z,80.74
2023-02-18T10:25:05.424Z,80.58
2023-02-18T10:27:40.377Z,80.91
2023-02-18T10:30:23.845Z,80.71
2023-02-18T10:32:57.833Z,80.05
2023-02-18T10:35:32.742Z,79.89
2023-02-18T10:38:09.710Z,79.67
2023-02-18T10:40:50.847Z,79.27
2023-02-18T10:43:27.273Z,79.76
2023-02-18T10:46:05.696Z,79.91
2023-02-18T10:48:48.586Z,79.28
2023-02-18T10:51:22.167Z,79.02
2023-02-18T10:53:52.980Z,78.70
2023-02-18T10:56:44.275Z,79.43
2023-02-18T10:59:20.840Z,79.58
2023-02-18T11:01:57.697Z,80.05
2023-02-18T11:04:35.609Z,80.01
2023-02-18T11:07:07.758Z,79.53
2023-02-18T11:09:46.877Z,79.35
2023-02-18T11:12:19.401Z,78.95
2023-02-18T11:14:52.555Z,78.87
2023-02-18T11:17:27.319Z,79.04
2023-02-18T11:19:58.951Z,78.65
2023-02-18T11:22:33.235Z,78.83
2023-02-18T11:25:04.806Z,78.29
2023-02-18T11:27:43.386Z,78.77
2023-02-18T11:30:23.176Z,78.91
2023-02-18T11:32:56.347Z,79.46
2023-02-18T11:35:28.722Z,79.52
2023-02-18T11:38:00.128Z,79.31
2023-02-18T11:40:33.246Z,79.90
2023-02-18T11:43:08.511Z,80.25
2023-02-18T11:45:38.984Z,79.75
2023-02-18T11:48:16.139Z,79.36
2023-02-18T11:50:45.706Z,79.30
2023-02-18T11:53:30.114Z,79.72
2023-02-18T11:56:01.546Z,79.74
2023-02-18T11:58:41.919Z,80.00
2023-02-18T12:01:17.163Z,80.17
2023-02-18T12:03:49.823Z,80.16
2023-02-18T12:06:26.251Z,80.44
2023-02-18T12:08:59.880Z,80.46
2023-02-18T12:11:33.016Z,80.76
2023-02-18T12:14:02.019Z,80.93
2023-02-18T12:16:41.873Z,80.84
2023-02-18T12:19:29.083Z,80.87
2023-02-18T12:22:05.052Z,80.95
2023-02-18T12:24:48.972Z,80.59
2023-02-18T12:27:22.500Z,80.22
2023-02-18T12:30:10.920Z,80.10
2023-02-18T12:32:49.431Z,79.57
2023-02-18T12:35:38.785Z,78.98
2023-02-18T12:38:27.799Z,79.16
2023-02-18T12:41:16.238Z,79.29
2023-02-18T12:43:57.332Z,79.54
2023-02-18T12:46:42.405Z,79.94
2023-02-18T12:49:48.729Z,80.80
2023-02-18T12:52:36.337Z,81.95
2023-02-18T12:55:27.255Z,82.99
2023-02-18T12:58:06.938Z,83.17
2023-02-18T13:01:04.397Z,84.07
2023-02-18T13:04:05.874Z,85.20
2023-02-18T13:06:55.374Z,85.84
2023-02-18T13:09:36.910Z,85.94
2023-02-18T13:12:10.641Z,86.34
2023-02-18T13:14:46.768Z,86.40
2023-02-18T13:17:18.478Z,86.48
2023-02-18T13:19:51.801Z,86.51
2023-02-18T13:22:25.356Z,87.06
2023-02-18T13:24:59.952Z,87.04
2023-02-18T13:27:37.084Z,87.24
2023-02-18T13:30:23.142Z,87.19
2023-02-18T13:33:14.807Z,87.17
2023-02-18T13:35:50.744Z,87.49
2023-02-18T13:38:50.023Z,87.54
2023-02-18T13:41:21.140Z,87.44
2023-02-18T13:43:50.361Z,87.57
2023-02-18T13:46:21.755Z,87.72
2023-02-18T13:48:53.066Z,87.77
2023-02-18T13:51:32.246Z,88.06
2023-02-18T13:54:08.088Z,88.33
2023-02-18T13:56:43.520Z,88.73
2023-02-18T13:59:19.128Z,88.98
2023-02-18T14:01:50.850Z,89.40
2023-02-18T14:04:54.734Z,89.75
2023-02-18T14:07:48.049Z,90.16
2023-02-18T14:10:38.128Z,90.08
2023-02-18T14:13:26.310Z,90.27
2023-02-18T14:15:58.261Z,90.48
2023-02-18T14:19:01.388Z,90.86
2023-02-18T14:21:44.289Z,90.98
2023-02-18T14:24:14.086Z,90.62
2023-02-18T14:26:48.787Z,90.99
2023-02-18T14:29:28.114Z,91.41
2023-02-18T14:32:05.131Z,91.50
2023-02-18T14:34:59.930Z,92.01
2023-02-18T14:37:53.407Z,91.74
2023-02-18T14:40:59.954Z,91.88
2023-02-18T14:43:41.347Z,92.38
2023-02-18T14:46:27.705Z,92.49
2023-02-18T14:49:21.717Z,92.27
2023-02-18T14:51:54.058Z,92.54
2023-02-18T14:54:26.638Z,92.44
2023-02-18T14:56:59.178Z,92.37
2023-02-18T14:59:35.362Z,92.28
2023-02-18T15:02:04.680Z,92.67
2023-02-18T15:04:33.998Z,92.62
2023-02-18T15:07:05.269Z,92.67
2023-02-18T15:09:34.347Z,93.00
2023-02-18T15:12:05.849Z,93.16
2023-02-18T15:14:39.967Z,93.02
2023-02-18T15:17:15.841Z,93.42
2023-02-18T15:19:50.723Z,93.36
2023-02-18T15:22:22.484Z,93.78
2023-02-18T15:24:53.143Z,93.73
2023-02-18T15:27:25.032Z,93.79
2023-02-18T15:30:00.209Z,94.14
2023-02-18T15:32:33.071Z,93.99
2023-02-18T15:35:04.294Z,94.29
2023-02-18T15:37:33.946Z,94.82
2023-02-18T15:40:04.888Z,95.17
2023-02-18T15:42:35.917Z,95.47
2023-02-18T15:45:19.092Z,95.59
2023-02-18T15:47:51.704Z,95.55
2023-02-18T15:50:23.766Z,95.92
2023-02-18T15:52:54.860Z,96.15
2023-02-18T15:55:28.516Z,96.39
2023-02-18T15:57:58.650Z,97.16
2023-02-18T16:00:33.513Z,97.46
2023-02-18T16:03:11.111Z,99.62
2023-02-18T16:05:42.913Z,100.00
2023-02-18T16:08:17.031Z,99.38
2023-02-18T16:10:54.652Z,97.69
2023-02-18T16:13:26.812Z,96.90
2023-02-18T16:16:00.785Z,96.46
2023-02-18T16:18:32.915Z,96.58
2023-02-18T16:21:06.439Z,96.47
2023-02-18T16:23:42.531Z,96.46
2023-02-18T16:26:21.119Z,95.64
2023-02-18T16:28:53.146Z,95.54
2023-02-18T16:31:23.758Z,94.75
2023-02-18T16:33:53.843Z,94.08
2023-02-18T16:36:25.177Z,93.21
2023-02-18T16:38:54.628Z,93.19
2023-02-18T16:41:23.779Z,93.00
2023-02-18T16:43:54.084Z,92.82
2023-02-18T16:46:25.734Z,92.99
2023-02-18T16:48:57.099Z,93.44
2023-02-18T16:51:31.670Z,94.13
2023-02-18T16:54:00.903Z,93.56
2023-02-18T16:56:33.749Z,93.38
2023-02-18T16:59:03.064Z,93.22
2023-02-18T17:01:37.269Z,94.00
2023-02-18T17:04:07.384Z,94.89
2023-02-18T17:06:36.585Z,95.52
2023-02-18T17:09:17.983Z,95.74
2023-02-18T17:11:48.665Z,96.26
2023-02-18T17:14:18.845Z,96.88
2023-02-18T17:16:50.250Z,97.11
2023-02-18T17:19:19.709Z,97.27
2023-02-18T17:21:49.145Z,97.86
2023-02-18T17:24:19.896Z,98.09
2023-02-18T17:26:48.920Z,98.07
2023-02-18T17:29:17.970Z,98.16
2023-02-18T17:31:51.555Z,98.37
2023-02-18T17:34:25.912Z,98.35
2023-02-18T17:36:55.543Z,98.17
2023-02-18T17:39:24.874Z,98.35
2023-02-18T17:41:54.367Z,98.71
2023-02-18T17:44:24.899Z,98.63
2023-02-18T17:46:55.269Z,98.72
2023-02-18T17:49:24.271Z,98.78
2023-02-18T17:51:53.412Z,98.91
2023-02-18T17:54:25.738Z,98.84
2023-02-18T17:56:56.878Z,98.65
2023-02-18T17:59:26.025Z,98.24
2023-02-18T18:01:56.521Z,98.08
2023-02-18T18:04:25.613Z,97.99
2023-02-18T18:06:55.650Z,97.76
2023-02-18T18:09:24.935Z,97.88
2023-02-18T18:11:54.045Z,97.52
2023-02-18T18:14:23.213Z,97.75
2023-02-18T18:16:52.204Z,97.81
2023-02-18T18:19:22.704Z,97.63
2023-02-18T18:21:51.771Z,97.53
2023-02-18T18:24:20.817Z,97.13
2023-02-18T18:26:52.368Z,97.37
2023-02-18T18:29:21.462Z,97.19
2023-02-18T18:31:50.517Z,97.04
2023-02-18T18:34:23.264Z,96.97
2023-02-18T18:36:53.891Z,97.11
2023-02-18T18:39:22.898Z,96.97
2023-02-18T18:41:51.937Z,96.96
2023-02-18T18:44:20.990Z,97.14
2023-02-18T18:46:49.977Z,97.43
2023-02-18T18:49:18.944Z,97.57
2023-02-18T18:51:50.355Z,97.18
2023-02-18T18:54:21.077Z,97.44
2023-02-18T18:56:56.161Z,97.46
2023-02-18T18:59:30.440Z,97.40
2023-02-18T19:02:02.943Z,96.99
2023-02-18T19:04:32.013Z,97.16
2023-02-18T19:07:01.250Z,97.60
2023-02-18T19:09:31.865Z,96.86
2023-02-18T19:12:00.841Z,95.71
2023-02-18T19:14:29.838Z,95.03
2023-02-18T19:16:59.033Z,95.27
2023-02-18T19:19:28.133Z,95.81
2023-02-18T19:21:57.181Z,96.22
2023-02-18T19:24:26.355Z,96.90
2023-02-18T19:26:56.788Z,97.07
2023-02-18T19:29:25.998Z,97.52
2023-02-18T19:31:55.337Z,97.96
2023-02-18T19:34:24.341Z,98.21
2023-02-18T19:36:53.412Z,98.46
2023-02-18T19:39:22.390Z,98.74
2023-02-18T19:41:51.471Z,99.07
2023-02-18T19:44:21.852Z,99.37
2023-02-18T19:46:50.988Z,99.70
2023-02-18T19:49:20.036Z,99.96
2023-02-18T19:51:49.118Z,100.00
2023-02-18T19:54:18.361Z,100.00
2023-02-18T19:56:47.514Z,100.00
2023-02-18T19:59:16.485Z,100.00
2023-02-18T20:01:46.926Z,100.00
2023-02-18T20:04:15.984Z,100.00
2023-02-18T20:06:45.089Z,100.00
2023-02-18T20:09:14.861Z,100.00
2023-02-18T20:11:43.898Z,100.00
2023-02-18T20:14:12.883Z,100.00
2023-02-18T20:16:48.238Z,100.00
2023-02-18T20:19:17.470Z,100.00
2023-02-18T20:21:46.461Z,100.00
2023-02-18T20:24:16.520Z,100.00
2023-02-18T20:26:45.904Z,100.00
2023-02-18T20:29:16.081Z,100.00
2023-02-18T20:31:45.248Z,100.00
2023-02-18T20:34:16.280Z,100.00
2023-02-18T20:36:46.101Z,100.00
2023-02-18T20:39:16.600Z,100.00
2023-02-18T20:41:46.801Z,100.00
2023-02-18T20:44:17.281Z,100.00
2023-02-18T20:46:46.812Z,100.00
2023-02-18T20:49:20.009Z,100.00
2023-02-18T20:51:50.186Z,100.00
2023-02-18T20:54:20.726Z,100.00
2023-02-18T20:56:51.229Z,100.00
2023-02-18T20:59:21.642Z,100.00
2023-02-18T21:01:50.868Z,100.00
2023-02-18T21:04:21.758Z,100.00
2023-02-18T21:06:50.736Z,100.00
2023-02-18T21:09:20.091Z,100.00
2023-02-18T21:11:50.092Z,100.00
2023-02-18T21:14:19.080Z,100.00
2023-02-18T21:16:48.339Z,100.00
2023-02-18T21:19:19.498Z,100.00
2023-02-18T21:21:52.209Z,100.00
2023-02-18T21:24:21.232Z,100.00
2023-02-18T21:26:50.400Z,100.00
2023-02-18T21:29:19.417Z,100.00
2023-02-18T21:31:48.414Z,100.00
2023-02-18T21:34:17.730Z,100.00
2023-02-18T21:36:46.737Z,100.00
2023-02-18T21:39:17.478Z,100.00
2023-02-18T21:41:46.443Z,100.00
2023-02-18T21:44:15.659Z,100.00
2023-02-18T21:46:44.665Z,100.00
2023-02-18T21:49:13.611Z,100.00
2023-02-18T21:52:00.670Z,100.00
2023-02-18T21:54:33.877Z,100.00
2023-02-18T21:57:05.082Z,100.00
2023-02-18T21:59:35.627Z,100.00
2023-02-18T22:02:06.917Z,100.00
2023-02-18T22:04:38.733Z,100.00
2023-02-18T22:07:09.008Z,100.00
2023-02-18T22:09:39.842Z,100.00
2023-02-18T22:12:09.372Z,100.00
2023-02-18T22:14:38.666Z,100.00
2023-02-18T22:17:07.949Z,100.00
2023-02-18T22:19:37.356Z,100.00
2023-02-18T22:22:06.418Z,100.00
2023-02-18T22:24:35.591Z,100.00
2023-02-18T22:27:06.117Z,100.00
2023-02-18T22:29:35.174Z,100.00
2023-02-18T22:32:04.403Z,100.00
2023-02-18T22:34:33.431Z,100.00
2023-02-18T22:37:03.341Z,100.00
2023-02-18T22:39:32.562Z,100.00
2023-02-18T22:42:01.537Z,100.00
2023-02-18T22:44:31.998Z,100.00
2023-02-18T22:47:01.089Z,100.00
2023-02-18T22:49:30.276Z,100.00
2023-02-18T22:51:59.221Z,100.00
2023-02-18T22:54:28.199Z,100.00
2023-02-18T22:56:57.288Z,100.00
2023-02-18T22:59:26.398Z,100.00
2023-02-18T23:01:56.823Z,100.00
2023-02-18T23:04:25.895Z,100.00
2023-02-18T23:06:56.168Z,100.00
2023-02-18T23:09:27.393Z,100.00
2023-02-18T23:11:58.894Z,100.00
2023-02-18T23:14:29.905Z,100.00
2023-02-18T23:17:18.110Z,100.00
2023-02-18T23:19:49.010Z,100.00
2023-02-18T23:22:20.769Z,100.00
2023-02-18T23:24:50.393Z,100.00
2023-02-18T23:27:19.584Z,100.00
2023-02-18T23:29:48.682Z,100.00
2023-02-18T23:32:19.313Z,100.00
2023-02-18T23:34:48.350Z,100.00
2023-02-18T23:37:17.381Z,100.00
2023-02-18T23:39:47.476Z,100.00
2023-02-18T23:42:17.190Z,100.00
2023-02-18T23:44:50.210Z,100.00
2023-02-18T23:47:20.578Z,100.00
2023-02-18T23:49:49.514Z,100.00
2023-02-18T23:52:18.681Z,100.00
2023-02-18T23:54:47.798Z,100.00
2023-02-18T23:57:16.781Z,100.00
2023-02-18T23:59:45.785Z,100.00
